Time;durP1;ratioP1;P1;durP2;ratioP2;P2;SDS_P1;SDS_P2;PMS_P1;PMS_P2;Temp;Humidity;BMP_temperature;BMP_pressure;BME280_temperature;BME280_humidity;BME280_pressure;Samples;Min_cycle;Max_cycle;Signal;HPM_P1;HPM_P2
2022/05/09 00:01:13;;;;;;;1999.90;999.90;;;;;;;;;;5035791;28;20417;-70
2022/05/09 00:03:42;;;;;;;1999.90;999.90;;;;;;;;;;5037612;28;20858;-70
2022/05/09 00:06:12;;;;;;;1999.90;999.90;;;;;;;;;;5035121;28;20389;-70
2022/05/09 00:08:43;;;;;;;1999.90;999.90;;;;;;;;;;5036399;28;20403;-67
2022/05/09 00:11:11;;;;;;;1999.90;999.90;;;;;;;;;;5035635;28;20981;-69
2022/05/09 00:13:39;;;;;;;1999.90;999.90;;;;;;;;;;5036269;28;20494;-69
2022/05/09 00:16:07;;;;;;;1999.90;999.90;;;;;;;;;;5017195;28;20478;-70
2022/05/09 00:18:34;;;;;;;1999.90;999.90;;;;;;;;;;5011357;28;20875;-70
2022/05/09 00:21:02;;;;;;;1999.90;999.90;;;;;;;;;;5017757;28;20834;-69
2022/05/09 00:23:31;;;;;;;1999.90;999.90;;;;;;;;;;5035696;28;20506;-70
2022/05/09 00:26:00;;;;;;;1999.90;999.90;;;;;;;;;;5020685;28;21296;-70
2022/05/09 00:28:28;;;;;;;1999.90;999.90;;;;;;;;;;5035195;28;20396;-70
2022/05/09 00:30:58;;;;;;;1999.90;999.90;;;;;;;;;;5019088;28;20393;-70
2022/05/09 00:33:26;;;;;;;1999.90;999.90;;;;;;;;;;5037213;28;20895;-69
2022/05/09 00:35:54;;;;;;;1999.90;999.90;;;;;;;;;;5021532;28;21164;-69
2022/05/09 00:38:21;;;;;;;1999.90;999.90;;;;;;;;;;5039247;28;20424;-69
2022/05/09 00:43:37;;;;;;;1999.90;999.90;;;;;;;;;;5011938;28;20486;-69
2022/05/09 00:46:05;;;;;;;1999.90;999.90;;;;;;;;;;5021397;28;20405;-69
2022/05/09 00:48:33;;;;;;;1999.90;999.90;;;;;;;;;;5039091;28;20915;-69
2022/05/09 00:51:01;;;;;;;1999.90;999.90;;;;;;;;;;5021790;28;20399;-70
2022/05/09 00:53:30;;;;;;;1999.90;999.90;;;;;;;;;;5039968;28;20498;-69
2022/05/09 00:56:01;;;;;;;1999.90;999.90;;;;;;;;;;5021675;28;21336;-69
2022/05/09 00:58:30;;;;;;;1999.90;999.90;;;;;;;;;;5022039;28;20857;-69
2022/05/09 01:00:58;;;;;;;1999.90;999.90;;;;;;;;;;5039293;28;20392;-70
2022/05/09 01:03:29;;;;;;;1999.90;999.90;;;;;;;;;;5039240;28;20417;-68
2022/05/09 01:05:56;;;;;;;1999.90;999.90;;;;;;;;;;5019459;28;21126;-69
2022/05/09 01:08:25;;;;;;;1999.90;999.90;;;;;;;;;;5037523;28;21556;-69
2022/05/09 01:10:53;;;;;;;1999.90;999.90;;;;;;;;;;5039036;28;20423;-69
2022/05/09 01:13:23;;;;;;;1999.90;999.90;;;;;;;;;;5020191;28;20953;-69
2022/05/09 01:15:53;;;;;;;1999.90;999.90;;;;;;;;;;5037114;28;20404;-69
2022/05/09 01:18:21;;;;;;;1999.90;999.90;;;;;;;;;;5007861;28;20519;-69
2022/05/09 01:20:48;;;;;;;1999.90;999.90;;;;;;;;;;5038472;28;20522;-70
2022/05/09 01:23:17;;;;;;;1999.90;999.90;;;;;;;;;;5004222;28;20434;-69
2022/05/09 01:25:45;;;;;;;1999.90;999.90;;;;;;;;;;5023435;28;20408;-68
2022/05/09 01:28:12;;;;;;;1999.90;999.90;;;;;;;;;;5038205;28;20532;-68
2022/05/09 01:30:43;;;;;;;1999.90;999.90;;;;;;;;;;5021368;28;20405;-69
2022/05/09 01:33:13;;;;;;;1999.90;999.90;;;;;;;;;;5038063;28;20444;-67
2022/05/09 01:35:45;;;;;;;1999.90;999.90;;;;;;;;;;5020076;28;21739;-70
2022/05/09 01:38:16;;;;;;;1999.90;999.90;;;;;;;;;;5037833;28;20531;-69
2022/05/09 01:40:45;;;;;;;1999.90;999.90;;;;;;;;;;5037999;28;20412;-69
2022/05/09 01:43:13;;;;;;;1999.90;999.90;;;;;;;;;;5037522;28;20436;-68
2022/05/09 01:45:40;;;;;;;1999.90;999.90;;;;;;;;;;5036615;28;20442;-67
2022/05/09 01:50:53;;;;;;;1999.90;999.90;;;;;;;;;;5021016;28;20408;-69
2022/05/09 01:53:21;;;;;;;1999.90;999.90;;;;;;;;;;5039278;28;21373;-69
2022/05/09 01:55:50;;;;;;;1999.90;999.90;;;;;;;;;;5039577;28;20458;-69
2022/05/09 01:58:18;;;;;;;1999.90;999.90;;;;;;;;;;5037644;28;20507;-69
2022/05/09 02:00:47;;;;;;;1999.90;999.90;;;;;;;;;;5017056;28;20413;-69
2022/05/09 02:03:16;;;;;;;1999.90;999.90;;;;;;;;;;5009097;28;20416;-69
2022/05/09 02:05:44;;;;;;;1999.90;999.90;;;;;;;;;;5035774;28;20408;-69
2022/05/09 02:08:11;;;;;;;1999.90;999.90;;;;;;;;;;5037910;28;20536;-70
2022/05/09 02:10:41;;;;;;;1999.90;999.90;;;;;;;;;;5016431;28;20490;-69
2022/05/09 02:13:10;;;;;;;1999.90;999.90;;;;;;;;;;5026852;28;20502;-68
2022/05/09 02:15:38;;;;;;;1999.90;999.90;;;;;;;;;;5033105;28;20410;-69
2022/05/09 02:18:05;;;;;;;1999.90;999.90;;;;;;;;;;5018129;28;20480;-68
2022/05/09 02:20:33;;;;;;;1999.90;999.90;;;;;;;;;;5015183;28;20407;-66
2022/05/09 02:23:01;;;;;;;1999.90;999.90;;;;;;;;;;5016279;28;20535;-69
2022/05/09 02:25:30;;;;;;;1999.90;999.90;;;;;;;;;;5028733;28;20929;-69
2022/05/09 02:27:58;;;;;;;1999.90;999.90;;;;;;;;;;5017691;28;20548;-69
2022/05/09 02:30:27;;;;;;;1999.90;999.90;;;;;;;;;;5020267;28;20507;-69
2022/05/09 02:32:55;;;;;;;1999.90;999.90;;;;;;;;;;5036588;28;20423;-69
2022/05/09 02:35:22;;;;;;;1999.90;999.90;;;;;;;;;;5036683;28;20411;-68
2022/05/09 02:37:51;;;;;;;1999.90;999.90;;;;;;;;;;5002773;28;20451;-69
2022/05/09 02:40:19;;;;;;;1999.90;999.90;;;;;;;;;;5037226;28;20392;-70
2022/05/09 02:42:47;;;;;;;1999.90;999.90;;;;;;;;;;5020162;28;20439;-70
2022/05/09 02:45:15;;;;;;;1999.90;999.90;;;;;;;;;;5036954;28;20423;-69
2022/05/09 02:47:44;;;;;;;1999.90;999.90;;;;;;;;;;5037597;28;20945;-69
2022/05/09 02:50:12;;;;;;;1999.90;999.90;;;;;;;;;;5019068;28;20524;-69
2022/05/09 02:52:39;;;;;;;1999.90;999.90;;;;;;;;;;5012632;28;20418;-69
2022/05/09 02:55:08;;;;;;;1999.90;999.90;;;;;;;;;;5018741;28;20835;-69
2022/05/09 02:57:36;;;;;;;1999.90;999.90;;;;;;;;;;5036100;28;21213;-69
2022/05/09 03:00:04;;;;;;;1999.90;999.90;;;;;;;;;;5019986;28;20420;-69
2022/05/09 03:02:33;;;;;;;1999.90;999.90;;;;;;;;;;5036179;28;20419;-70
2022/05/09 03:05:01;;;;;;;1999.90;999.90;;;;;;;;;;5019097;28;21364;-68
2022/05/09 03:07:28;;;;;;;1999.90;999.90;;;;;;;;;;5019293;28;20400;-70
2022/05/09 03:09:56;;;;;;;1999.90;999.90;;;;;;;;;;5018652;28;20400;-70
2022/05/09 03:12:24;;;;;;;1999.90;999.90;;;;;;;;;;5018887;28;20420;-70
2022/05/09 03:14:51;;;;;;;1999.90;999.90;;;;;;;;;;5019495;28;20401;-70
2022/05/09 03:17:19;;;;;;;1999.90;999.90;;;;;;;;;;5033048;28;20416;-70
2022/05/09 03:19:47;;;;;;;1999.90;999.90;;;;;;;;;;5019182;28;20414;-70
2022/05/09 03:22:17;;;;;;;1999.90;999.90;;;;;;;;;;5017648;28;20396;-70
2022/05/09 03:24:44;;;;;;;1999.90;999.90;;;;;;;;;;5020145;28;20415;-70
2022/05/09 03:27:14;;;;;;;1999.90;999.90;;;;;;;;;;5018253;28;20412;-69
2022/05/09 03:29:42;;;;;;;1999.90;999.90;;;;;;;;;;5008507;28;20388;-70
2022/05/09 03:32:09;;;;;;;1999.90;999.90;;;;;;;;;;5036233;28;20542;-70
2022/05/09 03:34:37;;;;;;;1999.90;999.90;;;;;;;;;;5036352;28;21215;-68
2022/05/09 03:37:07;;;;;;;1999.90;999.90;;;;;;;;;;5036225;28;20416;-69
2022/05/09 03:39:36;;;;;;;1999.90;999.90;;;;;;;;;;5036951;28;20492;-70
2022/05/09 03:42:06;;;;;;;1999.90;999.90;;;;;;;;;;5002751;28;20404;-69
2022/05/09 03:44:33;;;;;;;1999.90;999.90;;;;;;;;;;5019005;28;20389;-70
2022/05/09 03:47:01;;;;;;;1999.90;999.90;;;;;;;;;;5036135;28;20887;-70
2022/05/09 03:49:28;;;;;;;1999.90;999.90;;;;;;;;;;5036526;28;21181;-70
2022/05/09 03:51:56;;;;;;;1999.90;999.90;;;;;;;;;;5036215;28;20906;-71
2022/05/09 03:54:24;;;;;;;1999.90;999.90;;;;;;;;;;5037087;28;20483;-70
2022/05/09 03:56:53;;;;;;;1999.90;999.90;;;;;;;;;;5038390;28;20431;-70
2022/05/09 03:59:21;;;;;;;1999.90;999.90;;;;;;;;;;5016875;28;21116;-73
2022/05/09 04:01:49;;;;;;;1999.90;999.90;;;;;;;;;;5013549;28;20574;-71
2022/05/09 04:04:16;;;;;;;1999.90;999.90;;;;;;;;;;5016423;28;20407;-69
2022/05/09 04:06:44;;;;;;;1999.90;999.90;;;;;;;;;;5033212;28;20408;-71
2022/05/09 04:09:11;;;;;;;1999.90;999.90;;;;;;;;;;5003006;28;20400;-70
2022/05/09 04:11:39;;;;;;;1999.90;999.90;;;;;;;;;;5039142;28;21265;-70
2022/05/09 04:14:08;;;;;;;1999.90;999.90;;;;;;;;;;5040685;28;21781;-70
2022/05/09 04:16:49;;;;;;;1999.90;999.90;;;;;;;;;;5039521;28;20494;-71
2022/05/09 04:19:17;;;;;;;1999.90;999.90;;;;;;;;;;5022077;28;21202;-70
2022/05/09 04:21:45;;;;;;;1999.90;999.90;;;;;;;;;;5040405;28;20499;-71
2022/05/09 04:24:13;;;;;;;1999.90;999.90;;;;;;;;;;5022552;28;21052;-72
2022/05/09 04:26:40;;;;;;;1999.90;999.90;;;;;;;;;;5039191;28;20462;-70
2022/05/09 04:29:10;;;;;;;1999.90;999.90;;;;;;;;;;5036340;28;20910;-70
2022/05/09 04:31:37;;;;;;;1999.90;999.90;;;;;;;;;;5035599;28;20503;-70
2022/05/09 04:34:05;;;;;;;1999.90;999.90;;;;;;;;;;5038188;28;20497;-71
2022/05/09 04:36:33;;;;;;;1999.90;999.90;;;;;;;;;;5021572;28;20392;-70
2022/05/09 04:39:08;;;;;;;1999.90;999.90;;;;;;;;;;5018143;28;20466;-71
2022/05/09 04:41:36;;;;;;;1999.90;999.90;;;;;;;;;;5020993;28;21342;-70
2022/05/09 04:44:05;;;;;;;1999.90;999.90;;;;;;;;;;5021452;28;20415;-71
2022/05/09 04:46:34;;;;;;;1999.90;999.90;;;;;;;;;;5037992;28;20467;-71
2022/05/09 04:49:02;;;;;;;1999.90;999.90;;;;;;;;;;5017771;28;20409;-69
2022/05/09 04:51:29;;;;;;;1999.90;999.90;;;;;;;;;;5036231;28;20778;-71
2022/05/09 04:53:57;;;;;;;1999.90;999.90;;;;;;;;;;5034915;28;20400;-71
2022/05/09 04:56:24;;;;;;;1999.90;999.90;;;;;;;;;;5017993;28;20805;-71
2022/05/09 04:58:52;;;;;;;1999.90;999.90;;;;;;;;;;5018328;28;20439;-70
2022/05/09 05:01:20;;;;;;;1999.90;999.90;;;;;;;;;;5035172;28;20583;-71
2022/05/09 05:03:48;;;;;;;1999.90;999.90;;;;;;;;;;5019972;28;20436;-72
2022/05/09 05:06:16;;;;;;;1999.90;999.90;;;;;;;;;;5002667;28;20420;-71
2022/05/09 05:08:44;;;;;;;1999.90;999.90;;;;;;;;;;5018504;28;20862;-71
2022/05/09 05:11:12;;;;;;;1999.90;999.90;;;;;;;;;;5036361;28;20495;-71
2022/05/09 05:13:39;;;;;;;1999.90;999.90;;;;;;;;;;5035198;28;20392;-72
2022/05/09 05:16:07;;;;;;;1999.90;999.90;;;;;;;;;;5020121;28;20657;-72
2022/05/09 05:18:34;;;;;;;1999.90;999.90;;;;;;;;;;5038451;28;20400;-72
2022/05/09 05:21:10;;;;;;;1999.90;999.90;;;;;;;;;;5038174;28;20482;-72
2022/05/09 05:23:38;;;;;;;1999.90;999.90;;;;;;;;;;5021322;28;20385;-72
2022/05/09 05:26:05;;;;;;;1999.90;999.90;;;;;;;;;;5038327;28;20388;-70
2022/05/09 05:28:33;;;;;;;1999.90;999.90;;;;;;;;;;5019867;28;20951;-72
2022/05/09 05:31:14;;;;;;;1999.90;999.90;;;;;;;;;;5013685;28;20416;-72
2022/05/09 05:33:44;;;;;;;1999.90;999.90;;;;;;;;;;5026590;28;20372;-71
2022/05/09 05:36:14;;;;;;;1999.90;999.90;;;;;;;;;;5020766;28;20389;-72
2022/05/09 05:38:43;;;;;;;1999.90;999.90;;;;;;;;;;5004685;28;20505;-73
2022/05/09 05:41:10;;;;;;;1999.90;999.90;;;;;;;;;;5020201;28;20420;-72
2022/05/09 05:43:38;;;;;;;1999.90;999.90;;;;;;;;;;5038346;28;20537;-71
2022/05/09 05:46:05;;;;;;;1999.90;999.90;;;;;;;;;;5020127;28;20403;-69
2022/05/09 05:48:33;;;;;;;1999.90;999.90;;;;;;;;;;5039160;28;20396;-72
2022/05/09 05:51:01;;;;;;;1999.90;999.90;;;;;;;;;;5021030;28;20515;-72
2022/05/09 05:53:30;;;;;;;1999.90;999.90;;;;;;;;;;5003409;28;20377;-71
2022/05/09 05:55:58;;;;;;;1999.90;999.90;;;;;;;;;;5038187;28;20397;-72
2022/05/09 05:58:27;;;;;;;1999.90;999.90;;;;;;;;;;5020879;28;20428;-71
2022/05/09 06:00:54;;;;;;;1999.90;999.90;;;;;;;;;;5037536;28;21488;-71
2022/05/09 06:03:22;;;;;;;1999.90;999.90;;;;;;;;;;5037897;28;20480;-72
2022/05/09 06:05:49;;;;;;;1999.90;999.90;;;;;;;;;;5019839;28;20950;-72
2022/05/09 06:08:17;;;;;;;1999.90;999.90;;;;;;;;;;5038814;28;20862;-71
2022/05/09 06:10:47;;;;;;;1999.90;999.90;;;;;;;;;;5038406;28;20876;-71
2022/05/09 06:13:15;;;;;;;1999.90;999.90;;;;;;;;;;4992898;28;20416;-71
2022/05/09 06:15:43;;;;;;;1999.90;999.90;;;;;;;;;;5020152;28;20774;-71
2022/05/09 06:18:13;;;;;;;1999.90;999.90;;;;;;;;;;5004241;28;20396;-71
2022/05/09 06:20:43;;;;;;;1999.90;999.90;;;;;;;;;;5003644;28;20514;-71
2022/05/09 06:23:13;;;;;;;1999.90;999.90;;;;;;;;;;5020027;28;20439;-72
2022/05/09 06:25:43;;;;;;;1999.90;999.90;;;;;;;;;;5003374;28;21176;-71
2022/05/09 06:28:14;;;;;;;1999.90;999.90;;;;;;;;;;5019502;28;20520;-71
2022/05/09 06:30:42;;;;;;;1999.90;999.90;;;;;;;;;;5019651;28;20484;-71
2022/05/09 06:33:10;;;;;;;1999.90;999.90;;;;;;;;;;5019910;28;20439;-71
2022/05/09 06:35:39;;;;;;;1999.90;999.90;;;;;;;;;;5038112;28;21223;-70
2022/05/09 06:38:07;;;;;;;1999.90;999.90;;;;;;;;;;5007816;28;20400;-72
2022/05/09 06:40:36;;;;;;;1999.90;999.90;;;;;;;;;;5035755;28;20514;-71
2022/05/09 06:43:06;;;;;;;1999.90;999.90;;;;;;;;;;5003240;28;20495;-70
2022/05/09 06:45:37;;;;;;;1999.90;999.90;;;;;;;;;;5019251;28;20483;-71
2022/05/09 06:48:05;;;;;;;1999.90;999.90;;;;;;;;;;5020102;28;20412;-71
2022/05/09 06:50:34;;;;;;;1999.90;999.90;;;;;;;;;;5020051;28;20427;-72
2022/05/09 06:53:06;;;;;;;1999.90;999.90;;;;;;;;;;5020861;28;20404;-70
2022/05/09 06:55:49;;;;;;;1999.90;999.90;;;;;;;;;;5019257;28;20878;-71
2022/05/09 06:58:18;;;;;;;1999.90;999.90;;;;;;;;;;5037832;28;20486;-71
2022/05/09 07:00:46;;;;;;;1999.90;999.90;;;;;;;;;;5034142;28;20416;-71
2022/05/09 07:03:15;;;;;;;1999.90;999.90;;;;;;;;;;5024006;28;20415;-71
2022/05/09 07:05:44;;;;;;;1999.90;999.90;;;;;;;;;;5037505;28;20882;-71
2022/05/09 07:08:13;;;;;;;1999.90;999.90;;;;;;;;;;5009832;28;20407;-73
2022/05/09 07:10:41;;;;;;;1999.90;999.90;;;;;;;;;;5020346;28;20416;-72
2022/05/09 07:13:08;;;;;;;1999.90;999.90;;;;;;;;;;5042090;28;20428;-72
2022/05/09 07:15:36;;;;;;;1999.90;999.90;;;;;;;;;;5040050;28;20407;-71
2022/05/09 07:18:05;;;;;;;1999.90;999.90;;;;;;;;;;5021774;28;20424;-71
2022/05/09 07:20:34;;;;;;;1999.90;999.90;;;;;;;;;;5042354;28;20404;-70
2022/05/09 07:23:04;;;;;;;1999.90;999.90;;;;;;;;;;5012207;28;20495;-71
2022/05/09 07:25:32;;;;;;;1999.90;999.90;;;;;;;;;;5023832;28;20401;-71
2022/05/09 07:28:00;;;;;;;1999.90;999.90;;;;;;;;;;5041142;28;20494;-73
2022/05/09 07:30:28;;;;;;;1999.90;999.90;;;;;;;;;;5043998;28;20452;-72
2022/05/09 07:32:56;;;;;;;1999.90;999.90;;;;;;;;;;5047700;28;20396;-72
2022/05/09 07:35:25;;;;;;;1999.90;999.90;;;;;;;;;;5026173;28;20515;-72
2022/05/09 07:37:53;;;;;;;1999.90;999.90;;;;;;;;;;5043676;28;20513;-70
2022/05/09 07:40:26;;;;;;;1999.90;999.90;;;;;;;;;;5004650;28;20424;-72
2022/05/09 07:42:54;;;;;;;1999.90;999.90;;;;;;;;;;5036400;28;20499;-69
2022/05/09 07:45:21;;;;;;;1999.90;999.90;;;;;;;;;;5019199;28;20920;-70
2022/05/09 07:47:49;;;;;;;1999.90;999.90;;;;;;;;;;5007614;28;20483;-71
2022/05/09 07:50:18;;;;;;;1999.90;999.90;;;;;;;;;;5036262;28;20404;-71
2022/05/09 07:52:47;;;;;;;1999.90;999.90;;;;;;;;;;5020062;28;20438;-71
2022/05/09 07:55:15;;;;;;;1999.90;999.90;;;;;;;;;;5035374;28;21072;-71
2022/05/09 07:57:43;;;;;;;1999.90;999.90;;;;;;;;;;5035269;28;20396;-72
2022/05/09 08:00:11;;;;;;;1999.90;999.90;;;;;;;;;;5035655;28;20810;-71
2022/05/09 08:02:49;;;;;;;1999.90;999.90;;;;;;;;;;5018588;28;20419;-72
2022/05/09 08:05:17;;;;;;;1999.90;999.90;;;;;;;;;;5018844;28;20429;-70
2022/05/09 08:07:45;;;;;;;1999.90;999.90;;;;;;;;;;5019205;28;20516;-72
2022/05/09 08:10:15;;;;;;;1999.90;999.90;;;;;;;;;;5019247;28;20388;-71
2022/05/09 08:12:43;;;;;;;1999.90;999.90;;;;;;;;;;5003621;28;20391;-72
2022/05/09 08:15:12;;;;;;;1999.90;999.90;;;;;;;;;;5037375;28;20455;-72
2022/05/09 08:17:41;;;;;;;1999.90;999.90;;;;;;;;;;5037387;28;20412;-72
2022/05/09 08:20:10;;;;;;;1999.90;999.90;;;;;;;;;;5036066;28;20883;-72
2022/05/09 08:22:37;;;;;;;1999.90;999.90;;;;;;;;;;5018996;28;20392;-71
2022/05/09 08:25:06;;;;;;;1999.90;999.90;;;;;;;;;;5036401;28;20424;-71
2022/05/09 08:27:36;;;;;;;1999.90;999.90;;;;;;;;;;5035190;28;20910;-70
2022/05/09 08:30:04;;;;;;;1999.90;999.90;;;;;;;;;;5037149;28;20527;-70
2022/05/09 08:32:34;;;;;;;1999.90;999.90;;;;;;;;;;5037260;28;20398;-71
2022/05/09 08:35:01;;;;;;;1999.90;999.90;;;;;;;;;;5018897;28;20495;-71
2022/05/09 08:37:30;;;;;;;1999.90;999.90;;;;;;;;;;5037519;28;20403;-72
2022/05/09 08:39:57;;;;;;;1999.90;999.90;;;;;;;;;;5036890;28;20404;-71
2022/05/09 08:42:27;;;;;;;1999.90;999.90;;;;;;;;;;5017804;28;20388;-71
2022/05/09 08:45:05;;;;;;;1999.90;999.90;;;;;;;;;;5018021;28;20408;-71
2022/05/09 08:47:50;;;;;;;1999.90;999.90;;;;;;;;;;5036579;28;20412;-72
2022/05/09 08:50:21;;;;;;;1999.90;999.90;;;;;;;;;;5017169;28;20416;-72
2022/05/09 08:52:56;;;;;;;1999.90;999.90;;;;;;;;;;5025922;28;20385;-72
2022/05/09 08:55:25;;;;;;;1999.90;999.90;;;;;;;;;;5038271;28;20420;-72
2022/05/09 08:57:55;;;;;;;1999.90;999.90;;;;;;;;;;5039836;28;20434;-71
2022/05/09 09:00:29;;;;;;;1999.90;999.90;;;;;;;;;;5022271;28;20411;-71
2022/05/09 09:02:59;;;;;;;1999.90;999.90;;;;;;;;;;5039316;28;20459;-70
2022/05/09 09:05:29;;;;;;;1999.90;999.90;;;;;;;;;;5021797;28;20412;-70
2022/05/09 09:08:05;;;;;;;1999.90;999.90;;;;;;;;;;5038733;28;20408;-72
2022/05/09 09:10:36;;;;;;;1999.90;999.90;;;;;;;;;;5040195;28;20416;-71
2022/05/09 09:13:22;;;;;;;1999.90;999.90;;;;;;;;;;5040223;28;20436;-71
2022/05/09 09:15:56;;;;;;;1999.90;999.90;;;;;;;;;;5021251;28;20893;-72
2022/05/09 09:18:29;;;;;;;1999.90;999.90;;;;;;;;;;5022342;28;20430;-72
2022/05/09 09:20:59;;;;;;;1999.90;999.90;;;;;;;;;;5022146;28;20532;-73
2022/05/09 09:23:47;;;;;;;1999.90;999.90;;;;;;;;;;5038779;28;20483;-73
2022/05/09 09:26:22;;;;;;;1999.90;999.90;;;;;;;;;;5032022;28;20875;-72
2022/05/09 09:28:51;;;;;;;1999.90;999.90;;;;;;;;;;5028163;28;20535;-72
2022/05/09 09:31:23;;;;;;;1999.90;999.90;;;;;;;;;;5039632;28;20504;-72
2022/05/09 09:33:52;;;;;;;1999.90;999.90;;;;;;;;;;5039633;28;20485;-73
2022/05/09 09:36:21;;;;;;;1999.90;999.90;;;;;;;;;;5020258;28;20396;-73
2022/05/09 09:38:53;;;;;;;1999.90;999.90;;;;;;;;;;5040045;28;20475;-72
2022/05/09 09:41:23;;;;;;;1999.90;999.90;;;;;;;;;;5039011;28;20408;-70
2022/05/09 09:43:53;;;;;;;1999.90;999.90;;;;;;;;;;5039731;28;20970;-72
2022/05/09 09:46:22;;;;;;;1999.90;999.90;;;;;;;;;;5039107;28;20458;-72
2022/05/09 09:49:01;;;;;;;1999.90;999.90;;;;;;;;;;5039740;28;20408;-73
2022/05/09 09:51:28;;;;;;;1999.90;999.90;;;;;;;;;;5021115;28;20424;-72
2022/05/09 09:53:58;;;;;;;1999.90;999.90;;;;;;;;;;5021797;28;20911;-72
2022/05/09 09:56:27;;;;;;;1999.90;999.90;;;;;;;;;;5036943;28;20404;-72
2022/05/09 09:58:57;;;;;;;1999.90;999.90;;;;;;;;;;5038717;28;21467;-70
2022/05/09 10:01:31;;;;;;;1999.90;999.90;;;;;;;;;;5035510;28;20408;-72
2022/05/09 10:04:06;;;;;;;1999.90;999.90;;;;;;;;;;5038040;28;20396;-72
2022/05/09 10:06:34;;;;;;;1999.90;999.90;;;;;;;;;;5037476;28;20926;-72
2022/05/09 10:09:06;;;;;;;1999.90;999.90;;;;;;;;;;5040641;28;20993;-72
2022/05/09 10:11:36;;;;;;;1999.90;999.90;;;;;;;;;;5020311;28;20415;-72
2022/05/09 10:14:05;;;;;;;1999.90;999.90;;;;;;;;;;5022421;28;20381;-72
2022/05/09 10:16:35;;;;;;;1999.90;999.90;;;;;;;;;;5036990;28;20514;-72
2022/05/09 10:19:04;;;;;;;1999.90;999.90;;;;;;;;;;5038475;28;20919;-72
2022/05/09 10:27:16;;;;;;;1999.90;999.90;;;;;;;;;;5019922;28;20487;-72
2022/05/09 10:29:45;;;;;;;1999.90;999.90;;;;;;;;;;5035720;28;20982;-71
2022/05/09 10:32:15;;;;;;;1999.90;999.90;;;;;;;;;;5038645;28;20966;-72
2022/05/09 10:34:45;;;;;;;1999.90;999.90;;;;;;;;;;5039425;28;20400;-71
2022/05/09 10:37:16;;;;;;;1999.90;999.90;;;;;;;;;;5038021;28;20487;-71
2022/05/09 10:39:45;;;;;;;1999.90;999.90;;;;;;;;;;5020719;28;20423;-71
2022/05/09 10:42:22;;;;;;;1999.90;999.90;;;;;;;;;;5020905;28;20407;-73
2022/05/09 10:44:52;;;;;;;1999.90;999.90;;;;;;;;;;5038459;28;21535;-72
2022/05/09 10:47:26;;;;;;;1999.90;999.90;;;;;;;;;;5019707;28;20406;-72
2022/05/09 10:49:58;;;;;;;1999.90;999.90;;;;;;;;;;5021360;28;20911;-72
2022/05/09 10:52:33;;;;;;;1999.90;999.90;;;;;;;;;;5021229;28;20411;-73
2022/05/09 10:55:03;;;;;;;1999.90;999.90;;;;;;;;;;5021263;28;20460;-71
2022/05/09 10:57:34;;;;;;;1999.90;999.90;;;;;;;;;;5037483;28;20954;-72
2022/05/09 11:00:12;;;;;;;1999.90;999.90;;;;;;;;;;5037586;28;20393;-72
2022/05/09 11:02:43;;;;;;;1999.90;999.90;;;;;;;;;;5020387;28;20450;-72
2022/05/09 11:05:11;;;;;;;1999.90;999.90;;;;;;;;;;5038826;28;20534;-71
2022/05/09 11:07:45;;;;;;;1999.90;999.90;;;;;;;;;;5038966;28;20392;-74
2022/05/09 11:10:23;;;;;;;1999.90;999.90;;;;;;;;;;5021305;28;20397;-72
2022/05/09 11:12:59;;;;;;;1999.90;999.90;;;;;;;;;;5021083;28;20910;-71
2022/05/09 11:15:31;;;;;;;1999.90;999.90;;;;;;;;;;5041744;28;20422;-68
2022/05/09 11:18:10;;;;;;;1999.90;999.90;;;;;;;;;;5022620;28;20396;-71
2022/05/09 11:20:41;;;;;;;1999.90;999.90;;;;;;;;;;5021634;28;20396;-71
2022/05/09 11:23:20;;;;;;;1999.90;999.90;;;;;;;;;;5038561;28;21312;-71
2022/05/09 11:25:52;;;;;;;1999.90;999.90;;;;;;;;;;5021000;28;20515;-72
2022/05/09 11:28:27;;;;;;;1999.90;999.90;;;;;;;;;;5040269;28;22740;-72
2022/05/09 11:30:59;;;;;;;1999.90;999.90;;;;;;;;;;5022736;28;20384;-71
2022/05/09 11:33:38;;;;;;;1999.90;999.90;;;;;;;;;;5021511;28;20409;-71
2022/05/09 11:36:10;;;;;;;1999.90;999.90;;;;;;;;;;5039148;28;21147;-72
2022/05/09 11:38:47;;;;;;;1999.90;999.90;;;;;;;;;;5039793;28;20396;-71
2022/05/09 11:41:22;;;;;;;1999.90;999.90;;;;;;;;;;5039311;28;20451;-73
2022/05/09 11:43:55;;;;;;;1999.90;999.90;;;;;;;;;;5022837;28;20412;-72
2022/05/09 11:46:28;;;;;;;1999.90;999.90;;;;;;;;;;5037610;28;20530;-72
2022/05/09 11:49:06;;;;;;;1999.90;999.90;;;;;;;;;;5020733;28;20396;-71
2022/05/09 11:51:39;;;;;;;1999.90;999.90;;;;;;;;;;5039165;28;20408;-71
2022/05/09 11:54:09;;;;;;;1999.90;999.90;;;;;;;;;;5025293;28;20423;-71
2022/05/09 11:56:39;;;;;;;1999.90;999.90;;;;;;;;;;5032087;28;20384;-71
2022/05/09 11:59:10;;;;;;;1999.90;999.90;;;;;;;;;;5038906;28;20455;-71
2022/05/09 12:01:58;;;;;;;1999.90;999.90;;;;;;;;;;5021138;28;20396;-70
2022/05/09 12:04:40;;;;;;;1999.90;999.90;;;;;;;;;;5038037;28;20511;-70
2022/05/09 12:07:27;;;;;;;1999.90;999.90;;;;;;;;;;5019923;28;20401;-71
2022/05/09 12:09:55;;;;;;;1999.90;999.90;;;;;;;;;;5021013;28;21194;-71
2022/05/09 12:12:43;;;;;;;1999.90;999.90;;;;;;;;;;5020357;28;20397;-71
2022/05/09 12:15:33;;;;;;;1999.90;999.90;;;;;;;;;;5021247;28;20408;-70
2022/05/09 12:18:17;;;;;;;1999.90;999.90;;;;;;;;;;5022504;28;20413;-71
2022/05/09 12:21:03;;;;;;;1999.90;999.90;;;;;;;;;;5022160;28;20737;-71
2022/05/09 12:23:52;;;;;;;1999.90;999.90;;;;;;;;;;5037703;28;20400;-70
2022/05/09 12:26:29;;;;;;;1999.90;999.90;;;;;;;;;;5019628;28;20427;-71
2022/05/09 12:29:07;;;;;;;1999.90;999.90;;;;;;;;;;5003817;28;20411;-71
2022/05/09 12:31:39;;;;;;;1999.90;999.90;;;;;;;;;;5044544;28;20432;-71
2022/05/09 12:34:11;;;;;;;1999.90;999.90;;;;;;;;;;5043939;28;21666;-71
2022/05/09 12:36:40;;;;;;;1999.90;999.90;;;;;;;;;;5025501;28;20408;-70
2022/05/09 12:39:09;;;;;;;1999.90;999.90;;;;;;;;;;5044662;28;20400;-70
2022/05/09 12:41:42;;;;;;;1999.90;999.90;;;;;;;;;;5044359;28;20389;-70
2022/05/09 12:44:11;;;;;;;1999.90;999.90;;;;;;;;;;5023472;28;20450;-71
2022/05/09 12:46:44;;;;;;;1999.90;999.90;;;;;;;;;;5042604;28;20961;-71
2022/05/09 12:49:14;;;;;;;1999.90;999.90;;;;;;;;;;5006989;28;20503;-69
2022/05/09 12:51:45;;;;;;;1999.90;999.90;;;;;;;;;;5023459;28;20414;-70
2022/05/09 12:54:15;;;;;;;1999.90;999.90;;;;;;;;;;5041248;28;20440;-69
2022/05/09 12:56:47;;;;;;;1999.90;999.90;;;;;;;;;;5040816;28;20422;-70
2022/05/09 12:59:16;;;;;;;1999.90;999.90;;;;;;;;;;5006695;28;20404;-69
2022/05/09 13:01:50;;;;;;;1999.90;999.90;;;;;;;;;;5007318;28;20431;-70
2022/05/09 13:04:39;;;;;;;1999.90;999.90;;;;;;;;;;5024489;28;20585;-69
2022/05/09 13:07:08;;;;;;;1999.90;999.90;;;;;;;;;;5023502;28;20459;-71
2022/05/09 13:09:47;;;;;;;1999.90;999.90;;;;;;;;;;5022942;28;20493;-70
2022/05/09 13:12:21;;;;;;;1999.90;999.90;;;;;;;;;;5023338;28;20385;-71
2022/05/09 13:14:50;;;;;;;1999.90;999.90;;;;;;;;;;5006977;28;20478;-69
2022/05/09 13:17:19;;;;;;;1999.90;999.90;;;;;;;;;;5023408;28;20450;-70
2022/05/09 13:19:48;;;;;;;1999.90;999.90;;;;;;;;;;5039331;28;20454;-70
2022/05/09 13:22:21;;;;;;;1999.90;999.90;;;;;;;;;;5022198;28;20922;-69
2022/05/09 13:24:51;;;;;;;1999.90;999.90;;;;;;;;;;5005637;28;20409;-70
2022/05/09 13:27:21;;;;;;;1999.90;999.90;;;;;;;;;;5005350;28;20408;-71
2022/05/09 13:29:50;;;;;;;1999.90;999.90;;;;;;;;;;5040224;28;20480;-71
2022/05/09 13:32:24;;;;;;;1999.90;999.90;;;;;;;;;;5022096;28;20418;-70
2022/05/09 13:34:53;;;;;;;1999.90;999.90;;;;;;;;;;5020069;28;20421;-71
2022/05/09 13:37:30;;;;;;;1999.90;999.90;;;;;;;;;;5021560;28;20415;-69
2022/05/09 13:39:57;;;;;;;1999.90;999.90;;;;;;;;;;5022501;28;20470;-70
2022/05/09 13:42:26;;;;;;;1999.90;999.90;;;;;;;;;;5020791;28;20526;-70
2022/05/09 13:44:55;;;;;;;1999.90;999.90;;;;;;;;;;5022114;28;20409;-71
2022/05/09 13:47:24;;;;;;;1999.90;999.90;;;;;;;;;;5021255;28;20412;-70
2022/05/09 13:49:54;;;;;;;1999.90;999.90;;;;;;;;;;5039535;28;20396;-71
2022/05/09 13:52:25;;;;;;;1999.90;999.90;;;;;;;;;;5038146;28;20401;-69
2022/05/09 13:54:56;;;;;;;1999.90;999.90;;;;;;;;;;5004914;28;20823;-70
2022/05/09 13:57:25;;;;;;;1999.90;999.90;;;;;;;;;;5036581;28;20486;-71
2022/05/09 13:59:54;;;;;;;1999.90;999.90;;;;;;;;;;5039279;28;20396;-70
2022/05/09 14:02:25;;;;;;;1999.90;999.90;;;;;;;;;;5021108;28;20659;-70
2022/05/09 14:04:59;;;;;;;1999.90;999.90;;;;;;;;;;5039368;28;20458;-70
2022/05/09 14:07:41;;;;;;;1999.90;999.90;;;;;;;;;;5038887;28;20424;-71
2022/05/09 14:10:15;;;;;;;1999.90;999.90;;;;;;;;;;5018560;28;20841;-66